Time;durP1;ratioP1;P1;durP2;ratioP2;P2;SDS_P1;SDS_P2;PMS_P1;PMS_P2;Temp;Humidity;BMP_temperature;BMP_pressure;BME280_temperature;BME280_humidity;BME280_pressure;Samples;Min_cycle;Max_cycle;Signal;HPM_P1;HPM_P2
2022/06/22 00:00:13;;;;;;;;;;;25.80;88.00;25.70;98923.00;;;;348570;27;83468;-90
2022/06/22 00:00:28;;;;;;;;;;;25.70;88.00;25.60;98921.00;;;;348045;27;86114;-90
2022/06/22 00:01:00;;;;;;;;;;;25.70;87.90;25.80;98927.00;;;;348639;27;83383;-90
2022/06/22 00:01:41;;;;;;;;;;;25.80;87.90;25.60;98918.00;;;;348249;27;85749;-90
2022/06/22 00:02:01;;;;;;;;;;;25.80;87.80;25.70;98916.00;;;;344216;28;83469;-90
2022/06/22 00:02:16;;;;;;;;;;;25.80;87.80;25.70;98912.00;;;;344766;28;84207;-90
2022/06/22 00:02:31;;;;;;;;;;;25.80;87.60;25.60;98907.00;;;;348358;27;82583;-90
2022/06/22 00:02:43;;;;;;;;;;;25.70;87.40;25.50;98909.00;;;;348294;27;87319;-90
2022/06/22 00:02:55;;;;;;;;;;;25.80;87.30;25.60;98909.00;;;;348682;27;82195;-91
2022/06/22 00:03:07;;;;;;;;;;;25.70;87.30;25.60;98913.00;;;;348531;27;84615;-90
2022/06/22 00:03:19;;;;;;;;;;;25.80;87.80;25.70;98904.00;;;;346987;28;83291;-91
2022/06/22 00:03:31;;;;;;;;;;;25.80;88.10;25.60;98904.00;;;;348119;27;86491;-90
2022/06/22 00:03:50;;;;;;;;;;;25.80;88.30;25.50;98905.00;;;;347064;28;83505;-90
2022/06/22 00:04:02;;;;;;;;;;;25.80;88.80;25.60;98907.00;;;;348424;27;84576;-91
2022/06/22 00:04:17;;;;;;;;;;;25.70;88.80;25.50;98912.00;;;;348638;27;83426;-90
2022/06/22 00:04:51;;;;;;;;;;;25.70;88.80;25.40;98909.00;;;;346960;28;87752;-90
2022/06/22 00:05:05;;;;;;;;;;;25.70;88.90;25.30;98900.00;;;;347265;28;82241;-91
2022/06/22 00:05:45;;;;;;;;;;;25.70;89.20;25.40;98901.00;;;;347199;28;85564;-90
2022/06/22 00:05:57;;;;;;;;;;;25.70;89.30;25.40;98898.00;;;;344318;28;83422;-90
2022/06/22 00:06:37;;;;;;;;;;;25.70;89.50;25.30;98906.00;;;;345702;28;85395;-90
2022/06/22 00:07:04;;;;;;;;;;;25.70;89.50;25.20;98912.00;;;;346829;27;83272;-90
2022/06/22 00:07:22;;;;;;;;;;;25.60;89.40;25.60;98901.00;;;;348182;27;85598;-91
2022/06/22 00:07:38;;;;;;;;;;;25.60;89.10;25.60;98908.00;;;;348588;27;83331;-91
2022/06/22 00:07:55;;;;;;;;;;;25.70;89.20;25.30;98901.00;;;;349558;27;86126;-90
2022/06/22 00:08:10;;;;;;;;;;;25.60;88.80;25.20;98906.00;;;;347164;28;83369;-90
2022/06/22 00:08:26;;;;;;;;;;;25.60;88.70;25.20;98907.00;;;;348149;27;85733;-90
2022/06/22 00:08:39;;;;;;;;;;;25.60;88.80;25.10;98903.00;;;;350031;27;83348;-91
2022/06/22 00:08:51;;;;;;;;;;;25.60;88.60;25.10;98901.00;;;;347037;28;86215;-91
2022/06/22 00:09:03;;;;;;;;;;;25.60;88.60;25.20;98899.00;;;;345900;28;83292;-90
2022/06/22 00:09:36;;;;;;;;;;;25.60;88.70;25.10;98906.00;;;;344309;28;85634;-91
2022/06/22 00:09:55;;;;;;;;;;;25.50;88.80;25.10;98894.00;;;;348279;27;83586;-92
2022/06/22 00:10:28;;;;;;;;;;;25.50;88.20;25.10;98897.00;;;;347623;27;86282;-91
2022/06/22 00:10:50;;;;;;;;;;;25.50;88.50;25.10;98901.00;;;;345839;28;83108;-90
2022/06/22 00:11:07;;;;;;;;;;;25.50;88.50;25.10;98896.00;;;;348481;27;84986;-90
2022/06/22 00:11:20;;;;;;;;;;;25.50;88.60;25.10;98897.00;;;;347240;28;83363;-91
2022/06/22 00:11:32;;;;;;;;;;;25.50;88.40;25.20;98899.00;;;;347145;28;83208;-90
2022/06/22 00:11:44;;;;;;;;;;;25.50;88.20;25.30;98897.00;;;;345762;28;83420;-90
2022/06/22 00:11:56;;;;;;;;;;;25.50;88.20;25.30;98897.00;;;;347084;28;84946;-91
2022/06/22 00:12:21;;;;;;;;;;;25.50;88.20;25.30;98894.00;;;;348385;27;83519;-90
2022/06/22 00:12:33;;;;;;;;;;;25.50;88.00;25.20;98895.00;;;;349249;27;88220;-90
2022/06/22 00:12:52;;;;;;;;;;;25.50;87.90;25.10;98891.00;;;;347198;28;82514;-90
2022/06/22 00:13:04;;;;;;;;;;;25.40;87.80;25.20;98893.00;;;;346861;28;84928;-90
2022/06/22 00:13:19;;;;;;;;;;;25.40;87.50;25.40;98894.00;;;;345879;28;82378;-90
2022/06/22 00:13:31;;;;;;;;;;;25.40;87.50;25.30;98899.00;;;;347075;28;84671;-90
2022/06/22 00:13:51;;;;;;;;;;;25.40;88.10;25.30;98900.00;;;;348293;27;83457;-90
2022/06/22 00:14:02;;;;;;;;;;;25.50;88.20;25.20;98897.00;;;;348477;27;85366;-91
2022/06/22 00:14:18;;;;;;;;;;;25.40;88.20;25.30;98897.00;;;;348359;27;83400;-90
2022/06/22 00:14:41;;;;;;;;;;;25.40;88.10;25.20;98899.00;;;;347031;28;85235;-90
2022/06/22 00:14:56;;;;;;;;;;;25.40;88.70;25.30;98899.00;;;;348609;27;83443;-90
2022/06/22 00:15:34;;;;;;;;;;;25.40;88.20;25.30;98904.00;;;;347022;28;85022;-90
2022/06/22 00:15:57;;;;;;;;;;;25.40;88.20;25.20;98904.00;;;;348199;27;82498;-90
2022/06/22 00:16:22;;;;;;;;;;;25.40;88.20;25.30;98906.00;;;;348058;27;83860;-90
2022/06/22 00:16:36;;;;;;;;;;;25.40;88.30;25.30;98906.00;;;;351491;27;82821;-91
2022/06/22 00:16:50;;;;;;;;;;;25.40;88.40;25.20;98911.00;;;;348475;27;85819;-90
2022/06/22 00:17:02;;;;;;;;;;;25.40;88.30;25.20;98912.00;;;;348515;27;83468;-89
2022/06/22 00:17:27;;;;;;;;;;;25.40;88.40;25.20;98908.00;;;;346796;28;86663;-90
2022/06/22 00:17:39;;;;;;;;;;;25.40;88.50;25.30;98909.00;;;;347022;28;83258;-89
2022/06/22 00:17:51;;;;;;;;;;;25.40;87.90;25.30;98908.00;;;;349434;27;85502;-91
2022/06/22 00:18:21;;;;;;;;;;;25.40;87.80;25.30;98905.00;;;;347062;28;82346;-90
2022/06/22 00:18:34;;;;;;;;;;;25.40;87.60;25.30;98900.00;;;;347132;28;84847;-91
2022/06/22 00:18:47;;;;;;;;;;;25.40;87.70;25.40;98902.00;;;;347208;27;82277;-90
2022/06/22 00:18:59;;;;;;;;;;;25.40;87.60;25.50;98903.00;;;;346676;28;86201;-90
2022/06/22 00:19:31;;;;;;;;;;;25.40;87.60;25.50;98908.00;;;;348291;27;83578;-91
2022/06/22 00:19:43;;;;;;;;;;;25.40;87.40;25.40;98900.00;;;;347125;28;83752;-90
2022/06/22 00:20:26;;;;;;;;;;;25.40;87.30;25.60;98906.00;;;;347108;28;83381;-90
2022/06/22 00:20:38;;;;;;;;;;;25.40;87.10;25.60;98905.00;;;;348456;27;84526;-90
2022/06/22 00:20:51;;;;;;;;;;;25.50;87.50;25.60;98901.00;;;;348378;27;82371;-90
2022/06/22 00:21:27;;;;;;;;;;;25.50;87.50;25.60;98906.00;;;;349634;27;86958;-89
2022/06/22 00:21:40;;;;;;;;;;;25.50;87.60;25.60;98911.00;;;;349907;27;83388;-90
2022/06/22 00:21:51;;;;;;;;;;;25.50;87.50;25.60;98911.00;;;;351077;27;85474;-90
2022/06/22 00:22:03;;;;;;;;;;;25.50;87.50;25.60;98915.00;;;;348358;27;83518;-91
2022/06/22 00:22:20;;;;;;;;;;;25.50;87.50;25.50;98913.00;;;;346866;28;85415;-91
2022/06/22 00:22:49;;;;;;;;;;;25.50;87.60;25.50;98916.00;;;;347124;28;83560;-90
2022/06/22 00:23:12;;;;;;;;;;;25.50;88.20;25.50;98916.00;;;;347079;28;84311;-90
2022/06/22 00:23:30;;;;;;;;;;;25.50;88.20;25.40;98914.00;;;;348356;27;83527;-90
2022/06/22 00:23:43;;;;;;;;;;;25.50;88.80;25.50;98910.00;;;;347053;28;84966;-90
2022/06/22 00:23:58;;;;;;;;;;;25.50;88.90;25.50;98913.00;;;;347235;28;82345;-91
2022/06/22 00:24:18;;;;;;;;;;;25.50;88.70;25.50;98915.00;;;;347071;28;83571;-90
2022/06/22 00:24:35;;;;;;;;;;;25.50;88.60;25.50;98907.00;;;;347195;28;83275;-90
2022/06/22 00:24:54;;;;;;;;;;;25.60;89.00;25.70;98913.00;;;;348325;27;83861;-91
2022/06/22 00:25:19;;;;;;;;;;;25.50;89.20;25.60;98918.00;;;;347115;28;83301;-90
2022/06/22 00:25:31;;;;;;;;;;;25.60;89.80;25.60;98921.00;;;;346951;28;86976;-90
2022/06/22 00:25:43;;;;;;;;;;;25.60;89.50;25.60;98914.00;;;;348302;27;83619;-91
2022/06/22 00:26:07;;;;;;;;;;;25.60;89.40;25.50;98917.00;;;;349203;27;85115;-90
2022/06/22 00:26:24;;;;;;;;;;;25.60;89.60;25.30;98920.00;;;;350054;27;83373;-90
2022/06/22 00:26:36;;;;;;;;;;;25.50;89.70;25.20;98921.00;;;;348433;27;86236;-91
2022/06/22 00:26:59;;;;;;;;;;;25.50;90.10;25.10;98923.00;;;;349999;27;82227;-90
2022/06/22 00:27:19;;;;;;;;;;;25.50;90.10;25.20;98924.00;;;;349483;27;86601;-90
2022/06/22 00:27:36;;;;;;;;;;;25.50;90.00;25.20;98920.00;;;;349724;27;83350;-90
2022/06/22 00:27:48;;;;;;;;;;;25.50;90.10;25.20;98923.00;;;;346723;28;83768;-90
2022/06/22 00:28:27;;;;;;;;;;;25.50;90.00;25.30;98923.00;;;;348010;27;82567;-89
2022/06/22 00:28:51;;;;;;;;;;;25.50;89.80;25.20;98930.00;;;;343897;28;86615;-90
2022/06/22 00:29:08;;;;;;;;;;;25.50;89.70;25.30;98931.00;;;;349684;27;82441;-90
2022/06/22 00:29:22;;;;;;;;;;;25.50;90.20;25.40;98930.00;;;;349644;27;87767;-91
2022/06/22 00:29:35;;;;;;;;;;;25.50;90.10;25.20;98932.00;;;;348634;27;82297;-91
2022/06/22 00:30:01;;;;;;;;;;;25.50;90.10;25.50;98933.00;;;;349815;27;83860;-90
2022/06/22 00:30:18;;;;;;;;;;;25.50;90.30;25.50;98933.00;;;;346824;28;84436;-90
2022/06/22 00:30:30;;;;;;;;;;;25.50;90.10;25.40;98920.00;;;;347139;28;84607;-90
2022/06/22 00:30:45;;;;;;;;;;;25.50;90.00;25.50;98923.00;;;;348618;27;83423;-90
2022/06/22 00:31:21;;;;;;;;;;;25.50;90.10;25.30;98932.00;;;;348116;27;86355;-90
2022/06/22 00:31:49;;;;;;;;;;;25.50;90.00;25.30;98932.00;;;;348360;27;82612;-90
2022/06/22 00:32:12;;;;;;;;;;;25.50;90.60;25.10;98934.00;;;;348439;27;87995;-90
2022/06/22 00:32:25;;;;;;;;;;;25.50;90.80;25.00;98938.00;;;;349941;27;83220;-90
2022/06/22 00:32:38;;;;;;;;;;;25.40;91.10;25.00;98937.00;;;;348388;27;85534;-90
2022/06/22 00:33:13;;;;;;;;;;;25.50;91.20;24.90;98936.00;;;;348283;27;83796;-90
2022/06/22 00:33:25;;;;;;;;;;;25.40;91.10;25.10;98933.00;;;;347987;27;82861;-90
2022/06/22 00:33:37;;;;;;;;;;;25.40;91.10;25.10;98937.00;;;;348648;27;83359;-90
2022/06/22 00:34:03;;;;;;;;;;;25.40;91.00;25.10;98937.00;;;;346608;28;85500;-90
2022/06/22 00:34:23;;;;;;;;;;;25.40;91.00;25.00;98925.00;;;;348317;27;82647;-90
2022/06/22 00:34:35;;;;;;;;;;;25.40;91.20;25.00;98930.00;;;;348162;27;87376;-90
2022/06/22 00:34:46;;;;;;;;;;;25.40;91.30;24.90;98934.00;;;;348321;27;83571;-90
2022/06/22 00:35:54;;;;;;;;;;;25.40;91.20;24.90;98936.00;;;;349697;27;83655;-90
2022/06/22 00:36:13;;;;;;;;;;;25.40;91.30;24.80;98933.00;;;;345767;28;83311;-90
2022/06/22 00:36:25;;;;;;;;;;;25.30;91.50;24.90;98932.00;;;;345681;28;84324;-90
2022/06/22 00:36:40;;;;;;;;;;;25.30;91.50;24.90;98934.00;;;;345655;28;83376;-90
2022/06/22 00:36:57;;;;;;;;;;;25.30;91.50;24.90;98932.00;;;;345190;28;86555;-90
2022/06/22 00:37:19;;;;;;;;;;;25.30;91.50;25.10;98931.00;;;;346539;28;82479;-90
2022/06/22 00:37:31;;;;;;;;;;;25.30;91.40;25.10;98924.00;;;;345425;28;87130;-90
2022/06/22 00:37:43;;;;;;;;;;;25.30;91.20;25.10;98926.00;;;;343995;28;83483;-90
2022/06/22 00:37:55;;;;;;;;;;;25.30;91.30;25.10;98923.00;;;;344668;28;85226;-91
2022/06/22 00:38:12;;;;;;;;;;;25.30;91.30;25.00;98933.00;;;;342743;28;83332;-90
2022/06/22 00:38:28;;;;;;;;;;;25.30;91.30;25.10;98929.00;;;;342617;28;86244;-90
2022/06/22 00:38:39;;;;;;;;;;;25.30;91.30;25.20;98925.00;;;;343013;28;82413;-90
2022/06/22 00:38:51;;;;;;;;;;;25.30;91.20;25.30;98932.00;;;;341544;28;88382;-90
2022/06/22 00:39:12;;;;;;;;;;;25.30;91.10;25.20;98934.00;;;;342721;28;82400;-90
2022/06/22 00:39:26;;;;;;;;;;;25.30;91.10;25.20;98932.00;;;;342951;28;83240;-90
2022/06/22 00:39:45;;;;;;;;;;;25.30;91.20;25.20;98931.00;;;;344018;28;83629;-89
2022/06/22 00:40:01;;;;;;;;;;;25.30;91.10;25.30;98929.00;;;;346857;28;85382;-90
2022/06/22 00:40:16;;;;;;;;;;;25.30;91.10;25.30;98931.00;;;;339058;28;83214;-90
2022/06/22 00:40:27;;;;;;;;;;;25.30;91.00;25.20;98939.00;;;;334712;29;84446;-90
2022/06/22 00:40:39;;;;;;;;;;;25.30;91.10;25.10;98931.00;;;;337510;28;82361;-90
2022/06/22 00:40:54;;;;;;;;;;;25.30;91.10;25.20;98937.00;;;;336056;28;86662;-90
2022/06/22 00:41:32;;;;;;;;;;;25.30;91.10;25.10;98940.00;;;;337059;28;82643;-90
2022/06/22 00:41:46;;;;;;;;;;;25.30;90.90;25.20;98937.00;;;;335788;28;84906;-90
2022/06/22 00:42:18;;;;;;;;;;;25.30;91.30;25.30;98936.00;;;;337495;28;83220;-90
2022/06/22 00:42:32;;;;;;;;;;;25.30;91.30;25.30;98933.00;;;;337215;28;84521;-91
2022/06/22 00:42:47;;;;;;;;;;;25.40;91.30;25.30;98935.00;;;;336215;29;83270;-90
2022/06/22 00:42:59;;;;;;;;;;;25.40;91.20;25.30;98934.00;;;;336014;28;87182;-90
2022/06/22 00:43:14;;;;;;;;;;;25.30;91.30;25.30;98928.00;;;;344862;28;82663;-90
2022/06/22 00:43:28;;;;;;;;;;;25.40;91.20;25.40;98930.00;;;;339165;28;84292;-90
2022/06/22 00:43:40;;;;;;;;;;;25.40;91.00;25.40;98932.00;;;;336113;28;83590;-90
2022/06/22 00:43:52;;;;;;;;;;;25.30;90.90;25.40;98932.00;;;;336261;28;83958;-90
2022/06/22 00:44:07;;;;;;;;;;;25.40;90.80;25.40;98937.00;;;;340107;28;82547;-90
2022/06/22 00:44:19;;;;;;;;;;;25.40;90.80;25.40;98937.00;;;;339290;28;84052;-90
2022/06/22 00:44:31;;;;;;;;;;;25.30;90.90;25.40;98931.00;;;;338769;28;83339;-90
2022/06/22 00:44:52;;;;;;;;;;;25.40;90.90;25.40;98932.00;;;;344084;28;86464;-90
2022/06/22 00:45:26;;;;;;;;;;;25.40;90.80;25.40;98939.00;;;;344174;28;83595;-90
2022/06/22 00:45:37;;;;;;;;;;;25.40;91.20;25.40;98941.00;;;;336037;29;84156;-90
2022/06/22 00:45:49;;;;;;;;;;;25.40;91.20;25.50;98941.00;;;;334875;28;83284;-90
2022/06/22 00:46:02;;;;;;;;;;;25.40;91.20;25.50;98940.00;;;;338742;28;83996;-90
2022/06/22 00:46:21;;;;;;;;;;;25.40;91.40;25.50;98941.00;;;;337470;28;83620;-90
2022/06/22 00:46:33;;;;;;;;;;;25.40;91.40;25.40;98945.00;;;;334749;29;84693;-90
2022/06/22 00:46:59;;;;;;;;;;;25.40;91.60;25.40;98938.00;;;;336125;28;83456;-90
2022/06/22 00:47:28;;;;;;;;;;;25.40;91.90;25.30;98941.00;;;;337038;28;84884;-90
2022/06/22 00:47:44;;;;;;;;;;;25.40;91.80;25.40;98939.00;;;;336140;29;83113;-90
2022/06/22 00:48:14;;;;;;;;;;;25.40;91.50;25.40;98929.00;;;;338638;28;85249;-90
2022/06/22 00:48:33;;;;;;;;;;;25.40;91.60;25.30;98943.00;;;;338626;28;83563;-89
2022/06/22 00:48:50;;;;;;;;;;;25.40;91.80;25.50;98941.00;;;;334761;29;85448;-89
2022/06/22 00:49:07;;;;;;;;;;;25.50;91.60;25.50;98944.00;;;;337225;28;83463;-89
2022/06/22 00:49:19;;;;;;;;;;;25.40;91.90;25.50;98943.00;;;;336334;28;84696;-90
2022/06/22 00:49:31;;;;;;;;;;;25.40;91.60;25.40;98941.00;;;;337188;28;83480;-90
2022/06/22 00:49:43;;;;;;;;;;;25.50;91.70;25.40;98939.00;;;;334410;29;85414;-90
2022/06/22 00:49:57;;;;;;;;;;;25.50;91.90;25.30;98934.00;;;;338127;28;83663;-90
2022/06/22 00:50:17;;;;;;;;;;;25.50;92.00;25.30;98942.00;;;;334659;29;83649;-90
2022/06/22 00:50:39;;;;;;;;;;;25.40;92.10;25.20;98931.00;;;;333551;29;83291;-89
2022/06/22 00:51:06;;;;;;;;;;;25.40;92.30;25.10;98931.00;;;;335994;28;84031;-90
2022/06/22 00:51:29;;;;;;;;;;;25.40;92.20;25.20;98934.00;;;;335902;28;83308;-90
2022/06/22 00:51:41;;;;;;;;;;;25.40;91.60;25.30;98933.00;;;;336352;28;85621;-89
2022/06/22 00:51:53;;;;;;;;;;;25.40;91.90;25.30;98935.00;;;;335511;28;82702;-90
2022/06/22 00:52:06;;;;;;;;;;;25.40;91.80;25.30;98934.00;;;;337703;28;84303;-90
2022/06/22 00:52:24;;;;;;;;;;;25.40;91.70;25.30;98924.00;;;;337762;28;83451;-90
2022/06/22 00:52:59;;;;;;;;;;;25.40;91.70;25.30;98922.00;;;;336427;28;85625;-90
2022/06/22 00:53:16;;;;;;;;;;;25.40;91.80;25.20;98926.00;;;;336551;28;82987;-89
2022/06/22 00:53:40;;;;;;;;;;;25.40;91.60;25.30;98924.00;;;;335278;29;85119;-90
2022/06/22 00:54:00;;;;;;;;;;;25.40;91.60;25.30;98914.00;;;;336574;28;83414;-90
2022/06/22 00:54:14;;;;;;;;;;;25.40;91.50;25.40;98915.00;;;;334909;28;86536;-90
2022/06/22 00:54:27;;;;;;;;;;;25.40;91.70;25.40;98918.00;;;;335187;29;83512;-90
2022/06/22 00:54:39;;;;;;;;;;;25.40;92.10;25.30;98922.00;;;;335115;29;87592;-90
2022/06/22 00:54:51;;;;;;;;;;;25.40;92.00;25.30;98921.00;;;;336339;28;82594;-90
2022/06/22 00:55:03;;;;;;;;;;;25.40;91.90;25.20;98916.00;;;;336174;28;85138;-90
2022/06/22 00:55:30;;;;;;;;;;;25.40;91.80;25.00;98919.00;;;;334000;29;83422;-90
2022/06/22 00:55:48;;;;;;;;;;;25.40;91.80;25.00;98911.00;;;;334694;29;87001;-89
2022/06/22 00:56:04;;;;;;;;;;;25.30;91.30;25.10;98915.00;;;;336613;28;83359;-90
2022/06/22 00:56:22;;;;;;;;;;;25.30;91.30;25.20;98921.00;;;;336363;28;85236;-90
2022/06/22 00:56:36;;;;;;;;;;;25.30;91.30;25.20;98917.00;;;;336524;28;82345;-90
2022/06/22 00:56:53;;;;;;;;;;;25.30;91.60;25.10;98919.00;;;;334933;28;86192;-90
2022/06/22 00:57:24;;;;;;;;;;;25.30;91.70;25.10;98917.00;;;;337872;28;82359;-90
2022/06/22 00:57:36;;;;;;;;;;;25.30;91.60;25.00;98916.00;;;;335157;29;85289;-90
2022/06/22 00:57:55;;;;;;;;;;;25.30;91.80;25.00;98906.00;;;;335071;28;83440;-90
2022/06/22 00:58:27;;;;;;;;;;;25.30;91.60;25.00;98911.00;;;;337174;28;84021;-90
2022/06/22 00:58:41;;;;;;;;;;;25.20;91.50;24.90;98910.00;;;;336466;28;83534;-90
2022/06/22 00:59:19;;;;;;;;;;;25.20;91.50;24.90;98904.00;;;;336142;28;86935;-90
2022/06/22 00:59:41;;;;;;;;;;;25.20;91.50;25.10;98909.00;;;;331369;29;82559;-90
2022/06/22 01:00:17;;;;;;;;;;;25.20;91.30;25.00;98906.00;;;;332381;29;85298;-90
2022/06/22 01:00:34;;;;;;;;;;;25.20;91.30;24.90;98904.00;;;;331429;29;82272;-90
2022/06/22 01:00:55;;;;;;;;;;;25.20;91.40;25.00;98901.00;;;;332591;29;83759;-90
2022/06/22 01:01:17;;;;;;;;;;;25.10;91.10;25.00;98907.00;;;;335204;28;83312;-90
2022/06/22 01:01:57;;;;;;;;;;;25.10;91.30;24.90;98901.00;;;;333832;29;86401;-90
2022/06/22 01:02:31;;;;;;;;;;;25.10;91.20;24.90;98907.00;;;;333831;29;83387;-90
2022/06/22 01:02:53;;;;;;;;;;;25.10;91.10;25.00;98900.00;;;;332159;29;86499;-90
2022/06/22 01:03:17;;;;;;;;;;;25.10;91.00;25.10;98898.00;;;;335108;29;83335;-90
2022/06/22 01:03:39;;;;;;;;;;;25.10;91.00;25.00;98898.00;;;;332565;29;84779;-90
2022/06/22 01:04:40;;;;;;;;;;;25.10;91.10;24.90;98895.00;;;;333836;28;82886;-90
2022/06/22 01:04:59;;;;;;;;;;;25.10;91.20;24.90;98896.00;;;;333788;29;84748;-90
2022/06/22 01:05:50;;;;;;;;;;;25.10;91.30;24.90;98900.00;;;;333888;28;83479;-89
2022/06/22 01:06:07;;;;;;;;;;;25.10;91.30;24.90;98892.00;;;;335152;29;85490;-90
2022/06/22 01:06:40;;;;;;;;;;;25.10;91.60;24.90;98892.00;;;;333960;29;82640;-89
2022/06/22 01:07:24;;;;;;;;;;;25.10;91.60;24.90;98888.00;;;;334765;28;87393;-90
2022/06/22 01:07:59;;;;;;;;;;;25.10;91.50;24.80;98894.00;;;;330108;29;82712;-90
2022/06/22 01:08:31;;;;;;;;;;;25.00;91.70;24.80;98891.00;;;;332462;28;86921;-90
2022/06/22 01:09:08;;;;;;;;;;;25.10;91.50;24.90;98885.00;;;;332686;29;83156;-90
2022/06/22 01:09:45;;;;;;;;;;;25.00;91.60;24.90;98892.00;;;;340562;28;83805;-90
2022/06/22 01:10:02;;;;;;;;;;;25.10;91.70;24.90;98891.00;;;;341372;28;82645;-90
2022/06/22 01:10:26;;;;;;;;;;;25.00;91.80;24.90;98886.00;;;;341814;28;86063;-90
2022/06/22 01:10:59;;;;;;;;;;;25.00;91.70;24.80;98889.00;;;;339421;28;83528;-90
2022/06/22 01:12:45;;;;;;;;;;;25.00;91.70;24.90;98886.00;;;;338071;28;83929;-90
2022/06/22 01:13:07;;;;;;;;;;;25.00;91.80;24.90;98891.00;;;;340412;28;85015;-90
2022/06/22 01:13:30;;;;;;;;;;;25.00;91.90;24.80;98893.00;;;;338863;28;85210;-89
2022/06/22 01:13:43;;;;;;;;;;;25.00;92.20;24.80;98896.00;;;;337592;28;82380;-89
2022/06/22 01:13:55;;;;;;;;;;;25.00;92.10;24.80;98897.00;;;;337519;28;84945;-90
2022/06/22 01:14:38;;;;;;;;;;;25.00;92.10;24.80;98898.00;;;;338346;28;82403;-91
2022/06/22 01:15:02;;;;;;;;;;;25.00;92.10;24.80;98900.00;;;;335432;29;83110;-89
2022/06/22 01:15:30;;;;;;;;;;;25.00;92.10;24.70;98902.00;;;;335414;29;83489;-90
2022/06/22 01:15:54;;;;;;;;;;;24.90;92.20;24.70;98908.00;;;;333977;29;83246;-89
2022/06/22 01:16:26;;;;;;;;;;;24.90;92.30;25.00;98895.00;;;;333997;29;83583;-89
2022/06/22 01:16:39;;;;;;;;;;;24.90;92.10;24.90;98897.00;;;;335065;29;85706;-90
2022/06/22 01:16:51;;;;;;;;;;;25.00;92.20;24.90;98897.00;;;;335032;29;82358;-90
2022/06/22 01:17:04;;;;;;;;;;;25.00;92.20;24.80;98898.00;;;;335170;29;86073;-90
2022/06/22 01:17:20;;;;;;;;;;;25.00;92.20;24.80;98904.00;;;;336480;28;83437;-90
2022/06/22 01:17:35;;;;;;;;;;;25.00;92.20;24.90;98900.00;;;;335297;28;86544;-89
2022/06/22 01:18:24;;;;;;;;;;;25.00;92.20;24.80;98899.00;;;;336317;28;82520;-90
2022/06/22 01:19:20;;;;;;;;;;;25.00;92.20;24.80;98903.00;;;;336993;28;85204;-90
2022/06/22 01:20:09;;;;;;;;;;;25.00;92.70;24.80;98912.00;;;;332740;29;83330;-90
2022/06/22 01:21:05;;;;;;;;;;;24.90;92.70;24.80;98904.00;;;;333994;29;88359;-90
2022/06/22 01:21:18;;;;;;;;;;;25.00;92.80;24.80;98908.00;;;;333852;29;82757;-90
2022/06/22 01:21:40;;;;;;;;;;;24.90;93.00;24.80;98915.00;;;;332685;29;87519;-90
2022/06/22 01:22:11;;;;;;;;;;;24.90;93.00;24.90;98912.00;;;;334948;29;88155;-89
2022/06/22 01:22:50;;;;;;;;;;;25.00;93.10;24.80;98918.00;;;;333754;29;86163;-90
2022/06/22 01:23:31;;;;;;;;;;;24.90;93.30;25.00;98917.00;;;;330284;29;83542;-89
2022/06/22 01:24:06;;;;;;;;;;;25.00;93.40;25.00;98915.00;;;;328522;29;85467;-89
2022/06/22 01:24:24;;;;;;;;;;;25.00;93.20;24.90;98913.00;;;;331521;29;82558;-89
2022/06/22 01:24:41;;;;;;;;;;;25.00;93.60;24.80;98909.00;;;;332780;29;85819;-89
2022/06/22 01:25:16;;;;;;;;;;;24.90;93.60;24.80;98916.00;;;;333545;29;82931;-89
2022/06/22 01:25:35;;;;;;;;;;;24.90;93.60;24.80;98910.00;;;;333920;29;85181;-90
2022/06/22 01:25:53;;;;;;;;;;;24.90;93.60;24.90;98905.00;;;;331434;29;83453;-90
2022/06/22 01:26:28;;;;;;;;;;;24.90;93.40;24.80;98909.00;;;;331457;29;86433;-90
2022/06/22 01:27:04;;;;;;;;;;;24.90;93.60;24.80;98903.00;;;;332459;29;83600;-90
2022/06/22 01:27:19;;;;;;;;;;;24.90;93.60;25.00;98905.00;;;;332690;29;85938;-89
2022/06/22 01:27:36;;;;;;;;;;;24.90;93.40;24.90;98895.00;;;;332888;29;83336;-90
2022/06/22 01:27:47;;;;;;;;;;;25.00;93.30;24.80;98896.00;;;;332638;29;87065;-89
2022/06/22 01:27:58;;;;;;;;;;;25.00;93.40;24.80;98895.00;;;;331445;29;82694;-90
2022/06/22 01:28:11;;;;;;;;;;;25.00;93.50;24.70;98902.00;;;;330386;29;85951;-90
2022/06/22 01:28:22;;;;;;;;;;;24.90;93.70;24.70;98896.00;;;;331415;29;83576;-90
2022/06/22 01:28:33;;;;;;;;;;;24.90;93.80;24.60;98902.00;;;;332425;29;85040;-90
2022/06/22 01:29:06;;;;;;;;;;;24.90;93.90;24.60;98899.00;;;;335034;29;83472;-90
2022/06/22 01:29:24;;;;;;;;;;;24.90;93.80;24.80;98898.00;;;;334518;29;87000;-89
2022/06/22 01:29:35;;;;;;;;;;;24.90;93.60;24.80;98903.00;;;;329785;29;83256;-90
2022/06/22 01:29:49;;;;;;;;;;;24.90;93.60;24.80;98898.00;;;;332351;29;86662;-90
2022/06/22 01:30:02;;;;;;;;;;;24.90;93.70;24.70;98898.00;;;;333626;29;82550;-90
2022/06/22 01:30:35;;;;;;;;;;;24.90;93.60;24.70;98898.00;;;;332484;29;84755;-89
2022/06/22 01:30:49;;;;;;;;;;;24.90;93.50;24.70;98898.00;;;;331243;29;82560;-89
2022/06/22 01:31:04;;;;;;;;;;;24.90;93.70;24.80;98897.00;;;;332617;29;85599;-89
2022/06/22 01:31:15;;;;;;;;;;;24.90;93.80;24.70;98897.00;;;;330162;29;83655;-89
2022/06/22 01:31:25;;;;;;;;;;;24.90;93.80;24.70;98899.00;;;;331292;29;86612;-89
2022/06/22 01:31:36;;;;;;;;;;;24.90;93.70;24.70;98896.00;;;;331499;29;83744;-89
2022/06/22 01:31:59;;;;;;;;;;;24.90;93.80;24.60;98894.00;;;;332652;29;86434;-89
2022/06/22 01:32:17;;;;;;;;;;;24.90;93.70;24.50;98894.00;;;;331422;29;83402;-89
2022/06/22 01:32:31;;;;;;;;;;;24.90;93.90;24.50;98889.00;;;;331319;29;84101;-89
2022/06/22 01:32:41;;;;;;;;;;;24.80;93.90;24.50;98887.00;;;;334099;29;83710;-90
2022/06/22 01:32:52;;;;;;;;;;;24.80;93.90;24.50;98884.00;;;;332678;29;86762;-89
2022/06/22 01:33:07;;;;;;;;;;;24.80;93.80;24.50;98888.00;;;;331515;29;83486;-89
2022/06/22 01:33:32;;;;;;;;;;;24.80;93.90;24.50;98886.00;;;;330084;29;86767;-89
2022/06/22 01:33:46;;;;;;;;;;;24.80;93.80;24.50;98896.00;;;;332694;29;83457;-89
2022/06/22 01:33:57;;;;;;;;;;;24.80;94.10;24.50;98888.00;;;;330114;29;86581;-90
2022/06/22 01:34:13;;;;;;;;;;;24.80;94.00;24.50;98882.00;;;;330572;29;83498;-89
2022/06/22 01:34:25;;;;;;;;;;;24.80;94.00;24.60;98886.00;;;;329480;29;86959;-90
2022/06/22 01:34:38;;;;;;;;;;;24.80;94.00;24.60;98890.00;;;;331464;29;83365;-90
2022/06/22 01:34:50;;;;;;;;;;;24.80;93.90;24.60;98886.00;;;;328806;29;86751;-88
2022/06/22 01:35:14;;;;;;;;;;;24.80;94.10;24.60;98887.00;;;;331603;29;82417;-89
2022/06/22 01:35:32;;;;;;;;;;;24.80;94.10;24.60;98891.00;;;;330154;29;85558;-89
2022/06/22 01:35:42;;;;;;;;;;;24.80;94.20;24.50;98888.00;;;;332843;29;82509;-90
2022/06/22 01:35:58;;;;;;;;;;;24.80;94.30;24.40;98889.00;;;;332751;29;86996;-90
2022/06/22 01:36:24;;;;;;;;;;;24.70;94.30;24.30;98885.00;;;;331522;29;83351;-89
2022/06/22 01:36:35;;;;;;;;;;;24.70;94.40;24.40;98885.00;;;;331302;29;85809;-89
2022/06/22 01:36:45;;;;;;;;;;;24.70;94.50;24.40;98891.00;;;;330134;29;83399;-89
2022/06/22 01:37:00;;;;;;;;;;;24.70;94.50;24.50;98885.00;;;;329951;29;88276;-88
2022/06/22 01:37:31;;;;;;;;;;;24.70;94.40;24.50;98889.00;;;;330225;29;83426;-89
2022/06/22 01:37:44;;;;;;;;;;;24.70;94.30;24.50;98889.00;;;;330094;29;86350;-89
2022/06/22 01:37:55;;;;;;;;;;;24.70;94.30;24.50;98888.00;;;;333915;29;83369;-90
2022/06/22 01:38:22;;;;;;;;;;;24.70;94.30;24.60;98897.00;;;;334028;29;86011;-89
2022/06/22 01:38:36;;;;;;;;;;;24.70;94.30;24.60;98890.00;;;;332756;29;83552;-89
2022/06/22 01:38:47;;;;;;;;;;;24.70;94.30;24.50;98888.00;;;;332704;29;86516;-89
2022/06/22 01:38:58;;;;;;;;;;;24.70;94.40;24.50;98884.00;;;;335540;29;83465;-89
2022/06/22 01:39:11;;;;;;;;;;;24.70;94.50;24.40;98891.00;;;;333844;29;84986;-89
2022/06/22 01:39:21;;;;;;;;;;;24.70;94.60;24.40;98889.00;;;;331516;29;82538;-89
2022/06/22 01:39:32;;;;;;;;;;;24.70;94.50;24.50;98889.00;;;;334042;29;86473;-89
2022/06/22 01:39:43;;;;;;;;;;;24.70;94.50;24.50;98894.00;;;;331389;29;83529;-89